sensor_id;sensor_type;location;lat;lon;timestamp;P1;P2;P0
73973;PMS5003;62336;-26.094;27.994;2022-11-15T00:00:50;5;5;
73973;PMS5003;62336;-26.094;27.994;2022-11-15T00:03:16;5;5;
73973;PMS5003;62336;-26.094;27.994;2022-11-15T00:05:42;3;3;
73973;PMS5003;62336;-26.094;27.994;2022-11-15T00:08:07;4;4;
73973;PMS5003;62336;-26.094;27.994;2022-11-15T00:10:32;4;3;
73973;PMS5003;62336;-26.094;27.994;2022-11-15T00:12:57;5;5;
73973;PMS5003;62336;-26.094;27.994;2022-11-15T00:15:23;5;4;
73973;PMS5003;62336;-26.094;27.994;2022-11-15T00:17:48;5;5;
73973;PMS5003;62336;-26.094;27.994;2022-11-15T00:20:14;6;5;
73973;PMS5003;62336;-26.094;27.994;2022-11-15T00:22:38;4;4;
73973;PMS5003;62336;-26.094;27.994;2022-11-15T00:25:04;5;4;
73973;PMS5003;62336;-26.094;27.994;2022-11-15T00:27:30;4;4;
73973;PMS5003;62336;-26.094;27.994;2022-11-15T00:29:55;3;3;
73973;PMS5003;62336;-26.094;27.994;2022-11-15T00:32:20;4;4;
73973;PMS5003;62336;-26.094;27.994;2022-11-15T00:34:45;2;2;
73973;PMS5003;62336;-26.094;27.994;2022-11-15T00:37:10;4;3;
73973;PMS5003;62336;-26.094;27.994;2022-11-15T00:39:35;3;3;
73973;PMS5003;62336;-26.094;27.994;2022-11-15T00:42:00;2;2;
73973;PMS5003;62336;-26.094;27.994;2022-11-15T00:44:26;4;4;
73973;PMS5003;62336;-26.094;27.994;2022-11-15T00:46:52;3;3;
73973;PMS5003;62336;-26.094;27.994;2022-11-15T00:49:17;3;3;
73973;PMS5003;62336;-26.094;27.994;2022-11-15T00:51:42;5;4;
73973;PMS5003;62336;-26.094;27.994;2022-11-15T00:54:07;8;6;
73973;PMS5003;62336;-26.094;27.994;2022-11-15T00:56:33;1;1;
73973;PMS5003;62336;-26.094;27.994;2022-11-15T00:58:58;2;2;
73973;PMS5003;62336;-26.094;27.994;2022-11-15T01:01:24;3;2;
73973;PMS5003;62336;-26.094;27.994;2022-11-15T01:03:50;4;4;
73973;PMS5003;62336;-26.094;27.994;2022-11-15T01:06:16;3;3;
73973;PMS5003;62336;-26.094;27.994;2022-11-15T01:08:42;3;3;
73973;PMS5003;62336;-26.094;27.994;2022-11-15T01:11:09;4;4;
73973;PMS5003;62336;-26.094;27.994;2022-11-15T01:13:33;3;3;
73973;PMS5003;62336;-26.094;27.994;2022-11-15T01:15:58;5;3;
73973;PMS5003;62336;-26.094;27.994;2022-11-15T01:18:24;5;3;
73973;PMS5003;62336;-26.094;27.994;2022-11-15T01:20:50;1;1;
73973;PMS5003;62336;-26.094;27.994;2022-11-15T01:23:15;3;3;
73973;PMS5003;62336;-26.094;27.994;2022-11-15T01:25:40;4;3;
73973;PMS5003;62336;-26.094;27.994;2022-11-15T01:28:06;3;3;
73973;PMS5003;62336;-26.094;27.994;2022-11-15T01:30:31;4;3;
73973;PMS5003;62336;-26.094;27.994;2022-11-15T01:32:56;2;2;
73973;PMS5003;62336;-26.094;27.994;2022-11-15T01:35:21;3;3;
73973;PMS5003;62336;-26.094;27.994;2022-11-15T01:37:46;3;3;
73973;PMS5003;62336;-26.094;27.994;2022-11-15T01:40:12;2;2;
73973;PMS5003;62336;-26.094;27.994;2022-11-15T01:42:38;4;4;
73973;PMS5003;62336;-26.094;27.994;2022-11-15T01:45:04;3;3;
73973;PMS5003;62336;-26.094;27.994;2022-11-15T01:47:31;3;3;
73973;PMS5003;62336;-26.094;27.994;2022-11-15T01:49:57;4;3;
73973;PMS5003;62336;-26.094;27.994;2022-11-15T01:52:22;1;1;
73973;PMS5003;62336;-26.094;27.994;2022-11-15T01:54:47;3;3;
73973;PMS5003;62336;-26.094;27.994;2022-11-15T01:57:12;3;3;
73973;PMS5003;62336;-26.094;27.994;2022-11-15T01:59:39;5;3;
73973;PMS5003;62336;-26.094;27.994;2022-11-15T03:15:43;2;2;
73973;PMS5003;62336;-26.094;27.994;2022-11-15T03:18:08;8;6;
73973;PMS5003;62336;-26.094;27.994;2022-11-15T03:20:32;5;4;
73973;PMS5003;62336;-26.094;27.994;2022-11-15T03:23:00;4;4;
73973;PMS5003;62336;-26.094;27.994;2022-11-15T03:25:24;4;4;
73973;PMS5003;62336;-26.094;27.994;2022-11-15T03:27:49;3;3;
73973;PMS5003;62336;-26.094;27.994;2022-11-15T03:30:13;4;4;
73973;PMS5003;62336;-26.094;27.994;2022-11-15T03:32:39;4;3;
73973;PMS5003;62336;-26.094;27.994;2022-11-15T03:35:05;6;6;
73973;PMS5003;62336;-26.094;27.994;2022-11-15T03:37:31;3;3;
73973;PMS5003;62336;-26.094;27.994;2022-11-15T03:39:54;6;6;
73973;PMS5003;62336;-26.094;27.994;2022-11-15T03:42:21;3;3;
73973;PMS5003;62336;-26.094;27.994;2022-11-15T03:44:47;4;4;
73973;PMS5003;62336;-26.094;27.994;2022-11-15T03:47:12;2;2;
73973;PMS5003;62336;-26.094;27.994;2022-11-15T03:49:38;4;4;
73973;PMS5003;62336;-26.094;27.994;2022-11-15T03:52:03;3;3;
73973;PMS5003;62336;-26.094;27.994;2022-11-15T03:54:28;5;4;
73973;PMS5003;62336;-26.094;27.994;2022-11-15T03:56:54;2;2;
73973;PMS5003;62336;-26.094;27.994;2022-11-15T03:59:20;4;3;
73973;PMS5003;62336;-26.094;27.994;2022-11-15T04:01:46;2;2;
73973;PMS5003;62336;-26.094;27.994;2022-11-15T04:04:12;3;2;
73973;PMS5003;62336;-26.094;27.994;2022-11-15T04:06:37;2;2;
73973;PMS5003;62336;-26.094;27.994;2022-11-15T04:08:07;12;5;
73973;PMS5003;62336;-26.094;27.994;2022-11-15T04:10:32;7;7;
73973;PMS5003;62336;-26.094;27.994;2022-11-15T04:12:58;5;4;
73973;PMS5003;62336;-26.094;27.994;2022-11-15T04:15:23;5;4;
73973;PMS5003;62336;-26.094;27.994;2022-11-15T04:17:50;4;4;
73973;PMS5003;62336;-26.094;27.994;2022-11-15T04:20:16;4;4;
73973;PMS5003;62336;-26.094;27.994;2022-11-15T04:22:41;5;4;
73973;PMS5003;62336;-26.094;27.994;2022-11-15T04:25:07;2;2;
73973;PMS5003;62336;-26.094;27.994;2022-11-15T04:27:32;4;3;
73973;PMS5003;62336;-26.094;27.994;2022-11-15T04:29:58;4;4;
73973;PMS5003;62336;-26.094;27.994;2022-11-15T04:32:23;4;4;
73973;PMS5003;62336;-26.094;27.994;2022-11-15T04:34:50;4;4;
73973;PMS5003;62336;-26.094;27.994;2022-11-15T04:37:15;4;4;
73973;PMS5003;62336;-26.094;27.994;2022-11-15T04:39:41;6;6;
73973;PMS5003;62336;-26.094;27.994;2022-11-15T04:42:07;4;3;
73973;PMS5003;62336;-26.094;27.994;2022-11-15T04:44:33;3;3;
73973;PMS5003;62336;-26.094;27.994;2022-11-15T04:46:58;5;4;
73973;PMS5003;62336;-26.094;27.994;2022-11-15T04:49:24;7;6;
73973;PMS5003;62336;-26.094;27.994;2022-11-15T04:51:50;3;3;
73973;PMS5003;62336;-26.094;27.994;2022-11-15T04:54:16;6;4;
73973;PMS5003;62336;-26.094;27.994;2022-11-15T04:56:40;3;3;
73973;PMS5003;62336;-26.094;27.994;2022-11-15T04:59:05;4;4;
73973;PMS5003;62336;-26.094;27.994;2022-11-15T05:01:31;4;4;
73973;PMS5003;62336;-26.094;27.994;2022-11-15T05:03:57;5;4;
73973;PMS5003;62336;-26.094;27.994;2022-11-15T05:06:22;5;5;
73973;PMS5003;62336;-26.094;27.994;2022-11-15T05:08:47;4;4;
73973;PMS5003;62336;-26.094;27.994;2022-11-15T05:11:12;6;6;
73973;PMS5003;62336;-26.094;27.994;2022-11-15T05:13:37;5;5;
73973;PMS5003;62336;-26.094;27.994;2022-11-15T05:16:03;7;6;
73973;PMS5003;62336;-26.094;27.994;2022-11-15T05:18:28;5;5;
73973;PMS5003;62336;-26.094;27.994;2022-11-15T05:20:53;5;5;
73973;PMS5003;62336;-26.094;27.994;2022-11-15T05:23:18;6;5;
73973;PMS5003;62336;-26.094;27.994;2022-11-15T05:25:44;6;6;
73973;PMS5003;62336;-26.094;27.994;2022-11-15T05:28:09;4;4;
73973;PMS5003;62336;-26.094;27.994;2022-11-15T05:30:35;5;5;
73973;PMS5003;62336;-26.094;27.994;2022-11-15T05:33:00;7;7;
73973;PMS5003;62336;-26.094;27.994;2022-11-15T05:35:27;8;6;
73973;PMS5003;62336;-26.094;27.994;2022-11-15T05:37:51;8;8;
73973;PMS5003;62336;-26.094;27.994;2022-11-15T05:40:17;6;6;
73973;PMS5003;62336;-26.094;27.994;2022-11-15T05:42:41;6;5;
73973;PMS5003;62336;-26.094;27.994;2022-11-15T05:45:07;6;6;
73973;PMS5003;62336;-26.094;27.994;2022-11-15T05:47:32;5;5;
73973;PMS5003;62336;-26.094;27.994;2022-11-15T05:49:57;5;4;
73973;PMS5003;62336;-26.094;27.994;2022-11-15T05:52:23;6;6;
73973;PMS5003;62336;-26.094;27.994;2022-11-15T05:54:47;6;6;
73973;PMS5003;62336;-26.094;27.994;2022-11-15T05:57:13;6;6;
73973;PMS5003;62336;-26.094;27.994;2022-11-15T05:59:38;8;8;
73973;PMS5003;62336;-26.094;27.994;2022-11-15T06:02:03;8;7;
73973;PMS5003;62336;-26.094;27.994;2022-11-15T06:04:28;7;5;
73973;PMS5003;62336;-26.094;27.994;2022-11-15T06:06:53;8;7;
73973;PMS5003;62336;-26.094;27.994;2022-11-15T06:09:19;8;7;
73973;PMS5003;62336;-26.094;27.994;2022-11-15T06:11:44;8;7;
73973;PMS5003;62336;-26.094;27.994;2022-11-15T06:14:09;8;8;
73973;PMS5003;62336;-26.094;27.994;2022-11-15T06:16:35;7;6;
73973;PMS5003;62336;-26.094;27.994;2022-11-15T06:19:00;8;8;
73973;PMS5003;62336;-26.094;27.994;2022-11-15T06:21:26;8;8;
73973;PMS5003;62336;-26.094;27.994;2022-11-15T06:23:52;9;8;
73973;PMS5003;62336;-26.094;27.994;2022-11-15T06:26:17;8;7;
73973;PMS5003;62336;-26.094;27.994;2022-11-15T06:28:42;7;7;
73973;PMS5003;62336;-26.094;27.994;2022-11-15T06:31:10;7;7;
73973;PMS5003;62336;-26.094;27.994;2022-11-15T06:33:35;5;5;
73973;PMS5003;62336;-26.094;27.994;2022-11-15T06:36:01;8;8;
73973;PMS5003;62336;-26.094;27.994;2022-11-15T06:38:26;7;7;
73973;PMS5003;62336;-26.094;27.994;2022-11-15T06:40:52;7;7;
73973;PMS5003;62336;-26.094;27.994;2022-11-15T06:43:18;7;7;
73973;PMS5003;62336;-26.094;27.994;2022-11-15T06:45:44;10;8;
73973;PMS5003;62336;-26.094;27.994;2022-11-15T06:48:08;7;7;
73973;PMS5003;62336;-26.094;27.994;2022-11-15T06:50:34;8;7;
73973;PMS5003;62336;-26.094;27.994;2022-11-15T06:53:01;7;7;
73973;PMS5003;62336;-26.094;27.994;2022-11-15T06:55:26;7;6;
73973;PMS5003;62336;-26.094;27.994;2022-11-15T06:57:51;8;7;
73973;PMS5003;62336;-26.094;27.994;2022-11-15T07:00:18;6;6;
73973;PMS5003;62336;-26.094;27.994;2022-11-15T07:02:42;9;8;
73973;PMS5003;62336;-26.094;27.994;2022-11-15T07:05:08;8;8;
73973;PMS5003;62336;-26.094;27.994;2022-11-15T07:07:34;7;7;
73973;PMS5003;62336;-26.094;27.994;2022-11-15T07:10:00;8;8;
73973;PMS5003;62336;-26.094;27.994;2022-11-15T07:12:26;8;8;
73973;PMS5003;62336;-26.094;27.994;2022-11-15T07:14:51;7;7;
73973;PMS5003;62336;-26.094;27.994;2022-11-15T07:17:17;11;8;
73973;PMS5003;62336;-26.094;27.994;2022-11-15T07:19:43;9;7;
73973;PMS5003;62336;-26.094;27.994;2022-11-15T07:22:08;10;9;
73973;PMS5003;62336;-26.094;27.994;2022-11-15T07:24:34;9;8;
73973;PMS5003;62336;-26.094;27.994;2022-11-15T07:27:00;8;8;
73973;PMS5003;62336;-26.094;27.994;2022-11-15T07:29:26;6;6;
73973;PMS5003;62336;-26.094;27.994;2022-11-15T07:31:51;7;6;
73973;PMS5003;62336;-26.094;27.994;2022-11-15T07:34:17;7;7;
73973;PMS5003;62336;-26.094;27.994;2022-11-15T07:36:43;9;8;
73973;PMS5003;62336;-26.094;27.994;2022-11-15T07:39:08;9;9;
73973;PMS5003;62336;-26.094;27.994;2022-11-15T07:41:34;9;9;
73973;PMS5003;62336;-26.094;27.994;2022-11-15T07:44:01;6;6;
73973;PMS5003;62336;-26.094;27.994;2022-11-15T07:46:26;10;9;
73973;PMS5003;62336;-26.094;27.994;2022-11-15T07:48:51;8;7;
73973;PMS5003;62336;-26.094;27.994;2022-11-15T07:51:17;8;8;
73973;PMS5003;62336;-26.094;27.994;2022-11-15T07:53:42;14;13;
73973;PMS5003;62336;-26.094;27.994;2022-11-15T07:56:07;11;10;
73973;PMS5003;62336;-26.094;27.994;2022-11-15T07:58:33;9;9;
73973;PMS5003;62336;-26.094;27.994;2022-11-15T08:00:57;9;9;
73973;PMS5003;62336;-26.094;27.994;2022-11-15T08:03:23;8;7;
73973;PMS5003;62336;-26.094;27.994;2022-11-15T08:05:50;9;9;
73973;PMS5003;62336;-26.094;27.994;2022-11-15T08:08:14;8;8;
73973;PMS5003;62336;-26.094;27.994;2022-11-15T08:10:41;8;8;
73973;PMS5003;62336;-26.094;27.994;2022-11-15T08:13:07;9;9;
73973;PMS5003;62336;-26.094;27.994;2022-11-15T08:15:33;11;10;
73973;PMS5003;62336;-26.094;27.994;2022-11-15T08:17:58;8;8;
73973;PMS5003;62336;-26.094;27.994;2022-11-15T08:20:24;14;10;
73973;PMS5003;62336;-26.094;27.994;2022-11-15T08:22:49;10;10;
73973;PMS5003;62336;-26.094;27.994;2022-11-15T08:25:14;12;10;
73973;PMS5003;62336;-26.094;27.994;2022-11-15T08:27:40;8;8;
73973;PMS5003;62336;-26.094;27.994;2022-11-15T08:30:06;11;10;
73973;PMS5003;62336;-26.094;27.994;2022-11-15T08:32:31;10;10;
73973;PMS5003;62336;-26.094;27.994;2022-11-15T08:34:57;12;10;
73973;PMS5003;62336;-26.094;27.994;2022-11-15T08:37:23;7;7;
73973;PMS5003;62336;-26.094;27.994;2022-11-15T08:39:49;15;13;
73973;PMS5003;62336;-26.094;27.994;2022-11-15T08:42:15;8;8;
73973;PMS5003;62336;-26.094;27.994;2022-11-15T08:44:39;10;9;
73973;PMS5003;62336;-26.094;27.994;2022-11-15T08:47:07;10;9;
73973;PMS5003;62336;-26.094;27.994;2022-11-15T08:49:31;9;9;
73973;PMS5003;62336;-26.094;27.994;2022-11-15T08:51:57;9;8;
73973;PMS5003;62336;-26.094;27.994;2022-11-15T08:54:23;9;9;
73973;PMS5003;62336;-26.094;27.994;2022-11-15T08:56:49;9;9;
73973;PMS5003;62336;-26.094;27.994;2022-11-15T08:59:14;9;9;
73973;PMS5003;62336;-26.094;27.994;2022-11-15T09:01:40;8;7;
73973;PMS5003;62336;-26.094;27.994;2022-11-15T09:04:06;9;9;
73973;PMS5003;62336;-26.094;27.994;2022-11-15T09:06:31;8;8;
73973;PMS5003;62336;-26.094;27.994;2022-11-15T09:08:57;7;7;
73973;PMS5003;62336;-26.094;27.994;2022-11-15T09:11:22;12;10;
73973;PMS5003;62336;-26.094;27.994;2022-11-15T09:13:48;10;10;
73973;PMS5003;62336;-26.094;27.994;2022-11-15T09:16:13;13;12;
73973;PMS5003;62336;-26.094;27.994;2022-11-15T09:18:39;12;12;
73973;PMS5003;62336;-26.094;27.994;2022-11-15T09:21:05;11;10;
73973;PMS5003;62336;-26.094;27.994;2022-11-15T09:23:30;11;11;
73973;PMS5003;62336;-26.094;27.994;2022-11-15T09:25:58;10;10;
73973;PMS5003;62336;-26.094;27.994;2022-11-15T09:28:21;12;12;
73973;PMS5003;62336;-26.094;27.994;2022-11-15T09:30:47;9;9;
73973;PMS5003;62336;-26.094;27.994;2022-11-15T09:33:13;10;10;
73973;PMS5003;62336;-26.094;27.994;2022-11-15T09:35:39;9;9;
73973;PMS5003;62336;-26.094;27.994;2022-11-15T09:38:04;11;11;
73973;PMS5003;62336;-26.094;27.994;2022-11-15T09:40:30;10;10;
73973;PMS5003;62336;-26.094;27.994;2022-11-15T09:42:59;11;10;
73973;PMS5003;62336;-26.094;27.994;2022-11-15T09:45:22;14;12;
73973;PMS5003;62336;-26.094;27.994;2022-11-15T09:50:12;11;10;
73973;PMS5003;62336;-26.094;27.994;2022-11-15T09:52:36;11;10;
73973;PMS5003;62336;-26.094;27.994;2022-11-15T09:55:01;10;9;
73973;PMS5003;62336;-26.094;27.994;2022-11-15T09:57:30;13;12;
73973;PMS5003;62336;-26.094;27.994;2022-11-15T09:59:58;11;11;
73973;PMS5003;62336;-26.094;27.994;2022-11-15T10:02:22;13;11;
73973;PMS5003;62336;-26.094;27.994;2022-11-15T10:04:42;10;10;
73973;PMS5003;62336;-26.094;27.994;2022-11-15T10:07:13;14;14;
73973;PMS5003;62336;-26.094;27.994;2022-11-15T10:09:35;11;11;
73973;PMS5003;62336;-26.094;27.994;2022-11-15T10:11:58;12;12;
73973;PMS5003;62336;-26.094;27.994;2022-11-15T10:14:25;14;12;
73973;PMS5003;62336;-26.094;27.994;2022-11-15T10:16:53;14;13;
73973;PMS5003;62336;-26.094;27.994;2022-11-15T10:19:15;15;13;
73973;PMS5003;62336;-26.094;27.994;2022-11-15T10:21:39;12;12;
73973;PMS5003;62336;-26.094;27.994;2022-11-15T10:24:06;12;12;
73973;PMS5003;62336;-26.094;27.994;2022-11-15T10:26:28;14;12;
73973;PMS5003;62336;-26.094;27.994;2022-11-15T10:28:53;14;12;
73973;PMS5003;62336;-26.094;27.994;2022-11-15T10:31:23;19;16;
73973;PMS5003;62336;-26.094;27.994;2022-11-15T10:33:43;13;13;
73973;PMS5003;62336;-26.094;27.994;2022-11-15T10:36:15;11;11;
73973;PMS5003;62336;-26.094;27.994;2022-11-15T10:38:35;13;12;
73973;PMS5003;62336;-26.094;27.994;2022-11-15T10:41:06;14;14;
73973;PMS5003;62336;-26.094;27.994;2022-11-15T10:43:23;14;13;
73973;PMS5003;62336;-26.094;27.994;2022-11-15T10:45:48;14;13;
73973;PMS5003;62336;-26.094;27.994;2022-11-15T10:48:23;14;13;
73973;PMS5003;62336;-26.094;27.994;2022-11-15T10:50:39;13;12;
73973;PMS5003;62336;-26.094;27.994;2022-11-15T10:53:04;14;14;
73973;PMS5003;62336;-26.094;27.994;2022-11-15T10:55:30;15;12;
73973;PMS5003;62336;-26.094;27.994;2022-11-15T10:57:55;13;13;
73973;PMS5003;62336;-26.094;27.994;2022-11-15T11:00:27;12;12;
73973;PMS5003;62336;-26.094;27.994;2022-11-15T11:02:45;11;10;
73973;PMS5003;62336;-26.094;27.994;2022-11-15T11:07:35;13;12;
73973;PMS5003;62336;-26.094;27.994;2022-11-15T11:10:02;13;13;
73973;PMS5003;62336;-26.094;27.994;2022-11-15T11:12:27;17;15;
73973;PMS5003;62336;-26.094;27.994;2022-11-15T11:14:51;12;12;
73973;PMS5003;62336;-26.094;27.994;2022-11-15T11:17:20;18;16;
73973;PMS5003;62336;-26.094;27.994;2022-11-15T11:19:46;13;13;
73973;PMS5003;62336;-26.094;27.994;2022-11-15T11:22:11;15;13;
73973;PMS5003;62336;-26.094;27.994;2022-11-15T11:24:33;12;12;
73973;PMS5003;62336;-26.094;27.994;2022-11-15T11:27:01;9;9;
73973;PMS5003;62336;-26.094;27.994;2022-11-15T11:29:27;12;12;
73973;PMS5003;62336;-26.094;27.994;2022-11-15T11:31:49;12;12;
73973;PMS5003;62336;-26.094;27.994;2022-11-15T11:34:15;16;15;
73973;PMS5003;62336;-26.094;27.994;2022-11-15T11:36:38;13;13;
73973;PMS5003;62336;-26.094;27.994;2022-11-15T11:39:09;12;12;
73973;PMS5003;62336;-26.094;27.994;2022-11-15T11:41:34;12;12;
73973;PMS5003;62336;-26.094;27.994;2022-11-15T11:43:56;12;12;
73973;PMS5003;62336;-26.094;27.994;2022-11-15T11:48:45;14;13;
73973;PMS5003;62336;-26.094;27.994;2022-11-15T11:51:12;13;13;
73973;PMS5003;62336;-26.094;27.994;2022-11-15T11:53:35;14;12;
73973;PMS5003;62336;-26.094;27.994;2022-11-15T11:56:02;10;10;
73973;PMS5003;62336;-26.094;27.994;2022-11-15T11:58:26;11;9;
73973;PMS5003;62336;-26.094;27.994;2022-11-15T12:00:51;12;12;
73973;PMS5003;62336;-26.094;27.994;2022-11-15T12:03:17;13;12;
73973;PMS5003;62336;-26.094;27.994;2022-11-15T12:05:40;9;9;
73973;PMS5003;62336;-26.094;27.994;2022-11-15T12:08:15;15;14;
73973;PMS5003;62336;-26.094;27.994;2022-11-15T12:10:30;15;14;
73973;PMS5003;62336;-26.094;27.994;2022-11-15T12:12:56;17;15;
73973;PMS5003;62336;-26.094;27.994;2022-11-15T12:15:22;20;18;
73973;PMS5003;62336;-26.094;27.994;2022-11-15T12:17:46;11;11;
73973;PMS5003;62336;-26.094;27.994;2022-11-15T12:20:15;13;11;
73973;PMS5003;62336;-26.094;27.994;2022-11-15T12:22:38;11;10;
73973;PMS5003;62336;-26.094;27.994;2022-11-15T12:25:03;13;12;
73973;PMS5003;62336;-26.094;27.994;2022-11-15T12:27:30;12;12;
73973;PMS5003;62336;-26.094;27.994;2022-11-15T12:29:52;14;14;
73973;PMS5003;62336;-26.094;27.994;2022-11-15T12:32:21;14;14;
73973;PMS5003;62336;-26.094;27.994;2022-11-15T12:34:43;11;11;
73973;PMS5003;62336;-26.094;27.994;2022-11-15T12:56:29;12;11;
73973;PMS5003;62336;-26.094;27.994;2022-11-15T12:58:55;13;12;
73973;PMS5003;62336;-26.094;27.994;2022-11-15T13:08:38;12;11;
73973;PMS5003;62336;-26.094;27.994;2022-11-15T13:15:53;13;11;
73973;PMS5003;62336;-26.094;27.994;2022-11-15T13:20:44;15;14;
73973;PMS5003;62336;-26.094;27.994;2022-11-15T13:23:08;12;12;
73973;PMS5003;62336;-26.094;27.994;2022-11-15T13:27:57;16;15;
73973;PMS5003;62336;-26.094;27.994;2022-11-15T13:30:23;11;11;
73973;PMS5003;62336;-26.094;27.994;2022-11-15T13:32:47;14;14;
73973;PMS5003;62336;-26.094;27.994;2022-11-15T13:35:17;12;12;
73973;PMS5003;62336;-26.094;27.994;2022-11-15T13:37:37;14;12;
73973;PMS5003;62336;-26.094;27.994;2022-11-15T13:40:10;14;13;
73973;PMS5003;62336;-26.094;27.994;2022-11-15T13:42:28;15;15;
73973;PMS5003;62336;-26.094;27.994;2022-11-15T13:44:55;12;11;
73973;PMS5003;62336;-26.094;27.994;2022-11-15T13:47:19;11;11;
73973;PMS5003;62336;-26.094;27.994;2022-11-15T13:49:43;14;14;
73973;PMS5003;62336;-26.094;27.994;2022-11-15T13:52:10;13;13;
73973;PMS5003;62336;-26.094;27.994;2022-11-15T13:54:35;11;11;
73973;PMS5003;62336;-26.094;27.994;2022-11-15T13:57:00;12;12;
73973;PMS5003;62336;-26.094;27.994;2022-11-15T13:59:25;15;13;
73973;PMS5003;62336;-26.094;27.994;2022-11-15T14:01:50;17;17;
73973;PMS5003;62336;-26.094;27.994;2022-11-15T14:04:17;15;15;
73973;PMS5003;62336;-26.094;27.994;2022-11-15T14:06:45;15;13;
73973;PMS5003;62336;-26.094;27.994;2022-11-15T14:11:30;16;16;
73973;PMS5003;62336;-26.094;27.994;2022-11-15T14:14:02;15;14;
73973;PMS5003;62336;-26.094;27.994;2022-11-15T14:16:21;18;17;
73973;PMS5003;62336;-26.094;27.994;2022-11-15T14:18:47;21;19;
73973;PMS5003;62336;-26.094;27.994;2022-11-15T14:21:12;17;16;
73973;PMS5003;62336;-26.094;27.994;2022-11-15T14:23:37;19;19;
73973;PMS5003;62336;-26.094;27.994;2022-11-15T14:26:02;21;20;
73973;PMS5003;62336;-26.094;27.994;2022-11-15T14:28:29;20;19;
73973;PMS5003;62336;-26.094;27.994;2022-11-15T14:30:53;19;19;
73973;PMS5003;62336;-26.094;27.994;2022-11-15T14:33:19;14;14;
73973;PMS5003;62336;-26.094;27.994;2022-11-15T14:35:43;18;16;
73973;PMS5003;62336;-26.094;27.994;2022-11-15T14:38:08;18;17;
73973;PMS5003;62336;-26.094;27.994;2022-11-15T14:40:33;20;19;
73973;PMS5003;62336;-26.094;27.994;2022-11-15T14:42:59;18;18;
73973;PMS5003;62336;-26.094;27.994;2022-11-15T14:45:26;16;16;
73973;PMS5003;62336;-26.094;27.994;2022-11-15T14:47:50;16;15;
73973;PMS5003;62336;-26.094;27.994;2022-11-15T14:50:16;19;17;
73973;PMS5003;62336;-26.094;27.994;2022-11-15T14:52:41;20;18;
73973;PMS5003;62336;-26.094;27.994;2022-11-15T14:55:11;17;16;
73973;PMS5003;62336;-26.094;27.994;2022-11-15T14:57:31;18;17;
73973;PMS5003;62336;-26.094;27.994;2022-11-15T14:59:56;17;16;
73973;PMS5003;62336;-26.094;27.994;2022-11-15T15:02:22;16;16;
73973;PMS5003;62336;-26.094;27.994;2022-11-15T15:04:47;17;17;
73973;PMS5003;62336;-26.094;27.994;2022-11-15T15:07:12;16;15;
73973;PMS5003;62336;-26.094;27.994;2022-11-15T15:09:37;19;18;
73973;PMS5003;62336;-26.094;27.994;2022-11-15T15:12:02;22;22;
73973;PMS5003;62336;-26.094;27.994;2022-11-15T15:14:28;20;19;
73973;PMS5003;62336;-26.094;27.994;2022-11-15T15:16:53;21;20;
73973;PMS5003;62336;-26.094;27.994;2022-11-15T15:19:18;19;17;
73973;PMS5003;62336;-26.094;27.994;2022-11-15T15:21:44;18;17;
73973;PMS5003;62336;-26.094;27.994;2022-11-15T15:24:10;16;16;
73973;PMS5003;62336;-26.094;27.994;2022-11-15T15:26:35;20;20;
73973;PMS5003;62336;-26.094;27.994;2022-11-15T15:29:00;17;17;
73973;PMS5003;62336;-26.094;27.994;2022-11-15T15:31:26;20;19;
73973;PMS5003;62336;-26.094;27.994;2022-11-15T15:33:51;20;19;
73973;PMS5003;62336;-26.094;27.994;2022-11-15T15:36:17;19;19;
73973;PMS5003;62336;-26.094;27.994;2022-11-15T15:38:42;17;17;
73973;PMS5003;62336;-26.094;27.994;2022-11-15T15:41:09;18;18;
73973;PMS5003;62336;-26.094;27.994;2022-11-15T15:43:33;19;18;
73973;PMS5003;62336;-26.094;27.994;2022-11-15T15:45:58;19;18;
73973;PMS5003;62336;-26.094;27.994;2022-11-15T15:48:23;17;17;
73973;PMS5003;62336;-26.094;27.994;2022-11-15T15:50:49;16;15;
73973;PMS5003;62336;-26.094;27.994;2022-11-15T15:53:13;18;16;
73973;PMS5003;62336;-26.094;27.994;2022-11-15T15:55:39;21;21;
73973;PMS5003;62336;-26.094;27.994;2022-11-15T15:58:04;23;20;
73973;PMS5003;62336;-26.094;27.994;2022-11-15T16:00:29;16;16;
73973;PMS5003;62336;-26.094;27.994;2022-11-15T16:02:54;16;16;
73973;PMS5003;62336;-26.094;27.994;2022-11-15T16:05:19;20;19;
73973;PMS5003;62336;-26.094;27.994;2022-11-15T16:07:45;17;16;
73973;PMS5003;62336;-26.094;27.994;2022-11-15T16:10:17;22;21;
73973;PMS5003;62336;-26.094;27.994;2022-11-15T16:12:36;18;17;
73973;PMS5003;62336;-26.094;27.994;2022-11-15T16:15:02;18;17;
73973;PMS5003;62336;-26.094;27.994;2022-11-15T16:17:28;17;16;
73973;PMS5003;62336;-26.094;27.994;2022-11-15T16:19:51;18;17;
73973;PMS5003;62336;-26.094;27.994;2022-11-15T16:22:17;19;18;
73973;PMS5003;62336;-26.094;27.994;2022-11-15T16:24:42;17;16;
73973;PMS5003;62336;-26.094;27.994;2022-11-15T16:27:09;19;19;
73973;PMS5003;62336;-26.094;27.994;2022-11-15T16:29:33;22;21;
73973;PMS5003;62336;-26.094;27.994;2022-11-15T16:31:58;23;22;
73973;PMS5003;62336;-26.094;27.994;2022-11-15T16:34:24;23;21;
73973;PMS5003;62336;-26.094;27.994;2022-11-15T16:36:49;22;22;
73973;PMS5003;62336;-26.094;27.994;2022-11-15T16:39:14;19;19;
73973;PMS5003;62336;-26.094;27.994;2022-11-15T16:41:40;23;22;
73973;PMS5003;62336;-26.094;27.994;2022-11-15T16:44:05;28;27;
73973;PMS5003;62336;-26.094;27.994;2022-11-15T16:46:30;24;23;
73973;PMS5003;62336;-26.094;27.994;2022-11-15T16:48:55;22;20;
73973;PMS5003;62336;-26.094;27.994;2022-11-15T16:51:21;28;28;
73973;PMS5003;62336;-26.094;27.994;2022-11-15T16:53:46;29;26;
73973;PMS5003;62336;-26.094;27.994;2022-11-15T16:56:15;26;25;
73973;PMS5003;62336;-26.094;27.994;2022-11-15T16:58:37;31;29;
73973;PMS5003;62336;-26.094;27.994;2022-11-15T17:01:03;37;33;
73973;PMS5003;62336;-26.094;27.994;2022-11-15T17:03:28;31;29;
73973;PMS5003;62336;-26.094;27.994;2022-11-15T17:05:53;27;26;
73973;PMS5003;62336;-26.094;27.994;2022-11-15T17:08:18;22;21;
73973;PMS5003;62336;-26.094;27.994;2022-11-15T17:10:43;25;23;
73973;PMS5003;62336;-26.094;27.994;2022-11-15T17:13:10;23;23;
73973;PMS5003;62336;-26.094;27.994;2022-11-15T17:15:34;24;21;
73973;PMS5003;62336;-26.094;27.994;2022-11-15T17:18:00;22;22;
73973;PMS5003;62336;-26.094;27.994;2022-11-15T17:20:30;21;20;
73973;PMS5003;62336;-26.094;27.994;2022-11-15T17:22:50;22;22;
73973;PMS5003;62336;-26.094;27.994;2022-11-15T17:25:15;23;22;
73973;PMS5003;62336;-26.094;27.994;2022-11-15T17:27:41;26;26;
73973;PMS5003;62336;-26.094;27.994;2022-11-15T17:30:07;37;35;
73973;PMS5003;62336;-26.094;27.994;2022-11-15T17:32:34;33;32;
73973;PMS5003;62336;-26.094;27.994;2022-11-15T17:34:58;41;37;
73973;PMS5003;62336;-26.094;27.994;2022-11-15T17:37:23;35;35;
73973;PMS5003;62336;-26.094;27.994;2022-11-15T17:39:49;44;42;
73973;PMS5003;62336;-26.094;27.994;2022-11-15T17:42:14;30;29;
73973;PMS5003;62336;-26.094;27.994;2022-11-15T17:44:40;35;33;
73973;PMS5003;62336;-26.094;27.994;2022-11-15T17:47:05;26;25;